Time;durP1;ratioP1;P1;durP2;ratioP2;P2;SDS_P1;SDS_P2;PMS_P1;PMS_P2;Temp;Humidity;BMP_temperature;BMP_pressure;BME280_temperature;BME280_humidity;BME280_pressure;Samples;Min_cycle;Max_cycle;Signal;HPM_P1;HPM_P2
2022/10/25 00:01:24;;;;;;;26.67;9.20;;;;;;;3.94;61.69;99800.75;4969772;28;20536;-90
2022/10/25 00:03:52;;;;;;;25.63;9.45;;;;;;;4.13;61.32;99817.44;4959327;28;20097;-91
2022/10/25 00:06:18;;;;;;;22.85;8.82;;;;;;;4.17;60.82;99827.50;4976211;28;20090;-88
2022/10/25 00:08:44;;;;;;;30.08;9.55;;;;;;;3.99;60.87;99804.34;4975897;28;20038;-92
2022/10/25 00:11:18;;;;;;;22.00;9.27;;;;;;;4.12;60.98;99821.22;4991112;28;20077;-91
2022/10/25 00:16:19;;;;;;;32.92;9.18;;;;;;;3.90;61.16;99827.50;4996771;28;20042;-91
2022/10/25 00:18:46;;;;;;;29.98;9.43;;;;;;;3.88;61.51;99835.09;4975397;28;20043;-88
2022/10/25 00:21:12;;;;;;;32.88;9.38;;;;;;;3.62;61.56;99798.88;4958213;28;20097;-88
2022/10/25 00:23:38;;;;;;;33.50;9.55;;;;;;;3.70;61.71;99820.00;4944449;28;20042;-87
2022/10/25 00:26:07;;;;;;;31.50;10.10;;;;;;;3.49;62.16;99788.47;4975650;28;20129;-88
2022/10/25 00:28:33;;;;;;;26.98;9.65;;;;;;;3.68;62.38;99824.06;4985662;28;20038;-91
2022/10/25 00:31:11;;;;;;;35.53;10.73;;;;;;;3.60;62.47;99819.09;4967140;28;20069;-87
2022/10/25 00:33:38;;;;;;;32.05;11.55;;;;;;;3.48;62.71;99797.66;4938364;28;20390;-90
2022/10/25 00:36:06;;;;;;;34.97;11.38;;;;;;;3.50;63.04;99803.59;4942406;28;20464;-88
2022/10/25 00:38:33;;;;;;;28.45;11.40;;;;;;;3.65;63.52;99832.69;4958617;28;20039;-92
2022/10/25 00:41:01;;;;;;;35.13;11.70;;;;;;;3.36;63.44;99792.38;4962739;28;20046;-88
2022/10/25 00:43:44;;;;;;;30.55;11.90;;;;;;;3.18;63.92;99792.69;4958791;28;20070;-90
2022/10/25 00:46:18;;;;;;;33.47;11.85;;;;;;;3.59;63.62;99844.50;4977816;28;20101;-89
2022/10/25 00:49:00;;;;;;;36.15;12.63;;;;;;;3.49;64.04;99839.81;4927839;28;20402;-90
2022/10/25 00:51:52;;;;;;;31.85;12.02;;;;;;;3.38;64.54;99857.81;4950109;28;20050;-88
2022/10/25 00:54:28;;;;;;;29.85;12.18;;;;;;;3.40;64.66;99865.66;4938456;29;20055;-87
2022/10/25 00:56:59;;;;;;;34.00;12.93;;;;;;;3.27;64.71;99854.13;4983777;28;20043;-91
2022/10/25 00:59:27;;;;;;;35.83;12.90;;;;;;;3.21;64.75;99854.31;4976425;28;20039;-92
2022/10/25 01:01:54;;;;;;;31.52;11.88;;;;;;;3.18;64.72;99835.91;4946983;28;20500;-93
2022/10/25 01:04:25;;;;;;;31.30;11.82;;;;;;;3.39;64.77;99872.13;4993306;28;20046;-92
2022/10/25 01:06:53;;;;;;;37.08;12.13;;;;;;;3.22;64.55;99845.97;4950470;28;20118;-87
2022/10/25 01:09:22;;;;;;;35.67;12.88;;;;;;;3.23;64.85;99869.22;4939060;29;20067;-93
2022/10/25 01:11:50;;;;;;;40.03;13.27;;;;;;;2.91;65.23;99828.56;4954916;29;20509;-89
2022/10/25 01:14:16;;;;;;;37.10;13.07;;;;;;;3.10;65.29;99842.59;4932869;28;20073;-89
2022/10/25 01:17:19;;;;;;;35.50;13.20;;;;;;;3.29;64.83;99870.13;4973923;28;20424;-90
2022/10/25 01:20:03;;;;;;;24.40;12.38;;;;;;;3.26;64.48;99866.03;4935751;29;20095;-89
2022/10/25 01:22:59;;;;;;;30.95;14.15;;;;;;;3.12;64.49;99834.25;4954535;28;20457;-91
2022/10/25 01:25:38;;;;;;;32.83;14.27;;;;;;;3.38;64.36;99871.31;4956506;28;20071;-88
2022/10/25 01:28:26;;;;;;;36.90;13.65;;;;;;;3.46;64.04;99880.84;4970632;28;20450;-88
2022/10/25 01:31:08;;;;;;;30.88;14.40;;;;;;;3.44;63.86;99855.94;4959261;29;20050;-87
2022/10/25 01:34:08;;;;;;;31.58;13.57;;;;;;;3.30;63.71;99842.81;4991217;28;20047;-89
2022/10/25 01:36:37;;;;;;;59.63;15.43;;;;;;;3.38;63.85;99879.41;4928642;29;20518;-88
2022/10/25 01:39:16;;;;;;;33.55;13.95;;;;;;;3.32;64.16;99875.03;4923611;29;20047;-89
2022/10/25 01:42:04;;;;;;;28.65;12.40;;;;;;;3.32;64.13;99872.31;4955713;29;20043;-91
2022/10/25 01:44:48;;;;;;;34.38;12.77;;;;;;;3.20;64.17;99874.31;4955575;29;20125;-88
2022/10/25 01:47:20;;;;;;;40.92;13.82;;;;;;;3.19;64.02;99859.19;4954547;28;20039;-89
2022/10/25 01:49:51;;;;;;;45.00;13.30;;;;;;;3.09;63.94;99849.06;4960048;28;20035;-91
2022/10/25 01:52:21;;;;;;;30.88;14.00;;;;;;;2.98;64.07;99839.16;4955165;29;20051;-89
2022/10/25 01:54:48;;;;;;;30.45;12.52;;;;;;;3.17;63.84;99856.72;4956813;28;20043;-90
2022/10/25 01:57:23;;;;;;;36.30;13.73;;;;;;;3.14;63.34;99845.59;4953917;29;20039;-88
2022/10/25 02:00:01;;;;;;;37.20;12.05;;;;;;;3.45;63.49;99890.03;4956005;28;20034;-88
2022/10/25 02:02:41;;;;;;;31.50;11.55;;;;;;;3.45;63.10;99887.34;4938969;28;20542;-92
2022/10/25 02:05:29;;;;;;;30.13;10.35;;;;;;;3.22;63.46;99854.09;4954048;28;20075;-91
2022/10/25 02:08:27;;;;;;;27.33;10.63;;;;;;;3.14;63.50;99861.81;4953485;28;20047;-89
2022/10/25 02:11:30;;;;;;;28.42;9.95;;;;;;;3.17;63.58;99864.00;4962897;28;20094;-89
2022/10/25 02:14:11;;;;;;;21.85;10.38;;;;;;;3.19;63.90;99865.41;4972854;28;20125;-87
2022/10/25 02:16:45;;;;;;;29.98;10.93;;;;;;;3.22;63.81;99888.41;4934397;29;20545;-91
2022/10/25 02:19:16;;;;;;;20.95;10.85;;;;;;;2.89;63.83;99832.59;4934411;29;20047;-91
2022/10/25 02:21:45;;;;;;;29.48;11.73;;;;;;;3.11;64.06;99873.91;4964013;28;20043;-89
2022/10/25 02:24:17;;;;;;;33.47;10.25;;;;;;;3.02;63.94;99854.66;4972820;28;20044;-91
2022/10/25 02:26:45;;;;;;;28.45;10.13;;;;;;;3.14;63.24;99868.03;4956710;28;20042;-91
2022/10/25 02:29:13;;;;;;;20.75;9.95;;;;;;;3.18;63.42;99869.19;4972776;28;20040;-90
2022/10/25 02:31:40;;;;;;;20.95;9.57;;;;;;;3.32;63.03;99896.63;4966704;28;20089;-92
2022/10/25 02:34:07;;;;;;;25.50;9.75;;;;;;;3.05;63.08;99864.94;4957159;28;20089;-91
2022/10/25 02:36:33;;;;;;;25.40;9.48;;;;;;;3.21;63.26;99881.34;4921795;29;20441;-89
2022/10/25 02:39:00;;;;;;;22.43;9.37;;;;;;;3.33;62.95;99898.25;4953508;28;20043;-92
2022/10/25 02:41:26;;;;;;;21.08;9.10;;;;;;;3.32;62.68;99890.41;4934276;29;20146;-91
2022/10/25 02:43:52;;;;;;;21.92;8.70;;;;;;;3.20;62.56;99858.09;4935610;29;20047;-89
2022/10/25 02:46:22;;;;;;;18.92;7.45;;;;;;;3.53;62.35;99909.31;4920759;29;20059;-89
2022/10/25 02:48:49;;;;;;;23.70;8.90;;;;;;;3.59;61.76;99904.81;4952484;29;20071;-89
2022/10/25 02:51:16;;;;;;;18.30;6.85;;;;;;;3.56;62.31;99907.19;4952300;29;20051;-89
2022/10/25 02:53:42;;;;;;;24.52;7.65;;;;;;;3.28;62.62;99882.00;4932195;29;20051;-91
2022/10/25 02:56:18;;;;;;;28.80;8.37;;;;;;;3.43;62.22;99902.97;4923182;29;20537;-90
2022/10/25 02:58:45;;;;;;;23.63;7.97;;;;;;;3.40;62.19;99884.56;4901821;29;20107;-93
2022/10/25 03:01:13;;;;;;;21.70;6.95;;;;;;;3.46;62.08;99897.06;4917866;29;20528;-88
2022/10/25 03:03:39;;;;;;;;;;;;;;;3.48;62.23;99905.75;4945078;29;20035;-91
2022/10/25 03:06:06;;;;;;;21.35;8.60;;;;;;;3.41;62.28;99903.25;4935761;29;19922;-89
2022/10/25 03:08:32;;;;;;;21.95;7.53;;;;;;;3.34;62.30;99886.38;4952342;29;20039;-89
2022/10/25 03:10:59;;;;;;;18.93;8.30;;;;;;;3.00;62.19;99848.66;4952515;29;20054;-91
2022/10/25 03:13:26;;;;;;;18.58;9.15;;;;;;;2.97;61.91;99846.47;4942842;29;20142;-90
2022/10/25 03:15:52;;;;;;;20.38;9.52;;;;;;;2.97;62.14;99856.44;4913912;29;20052;-88
2022/10/25 03:18:18;;;;;;;20.90;9.20;;;;;;;3.02;61.78;99867.34;4921609;29;20113;-91
2022/10/25 03:20:44;;;;;;;23.17;10.95;;;;;;;3.15;61.60;99890.47;4933701;29;20498;-89
2022/10/25 03:23:12;;;;;;;29.45;11.40;;;;;;;3.24;62.04;99895.16;4953660;28;20099;-89
2022/10/25 03:25:38;;;;;;;28.38;11.40;;;;;;;2.99;62.00;99875.94;4934493;29;20039;-89
2022/10/25 03:28:04;;;;;;;26.77;13.07;;;;;;;3.03;62.48;99885.16;4953069;29;20413;-92
2022/10/25 03:30:31;;;;;;;25.90;10.40;;;;;;;2.97;61.87;99876.16;4957102;29;20047;-90
2022/10/25 03:32:58;;;;;;;30.93;11.00;;;;;;;3.06;62.06;99901.69;4971059;28;20512;-91
2022/10/25 03:35:24;;;;;;;40.20;11.75;;;;;;;3.03;62.45;99909.47;4947436;29;20326;-89
2022/10/25 03:37:51;;;;;;;35.75;13.38;;;;;;;2.45;62.24;99836.03;4955899;29;20051;-90
2022/10/25 03:40:19;;;;;;;28.45;13.20;;;;;;;3.02;62.60;99916.78;4937199;29;20130;-92
2022/10/25 03:42:45;;;;;;;;;;;;;;;3.01;61.63;99911.59;4953161;29;20035;-89
2022/10/25 03:45:12;;;;;;;42.80;15.90;;;;;;;3.02;62.14;99916.78;4953296;28;19926;-89
2022/10/25 03:47:39;;;;;;;50.70;17.45;;;;;;;2.89;62.51;99892.81;4952778;29;20039;-91
2022/10/25 03:50:06;;;;;;;;;;;;;;;2.96;61.96;99911.53;4953785;28;20046;-91
2022/10/25 03:52:32;;;;;;;55.35;18.00;;;;;;;2.62;61.99;99867.59;4969125;28;19922;-89
2022/10/25 03:54:58;;;;;;;60.08;20.88;;;;;;;2.67;62.20;99879.25;4962794;28;20050;-90
2022/10/25 03:57:24;;;;;;;58.05;20.85;;;;;;;2.61;61.97;99884.81;4945617;28;20047;-89
2022/10/25 03:59:50;;;;;;;54.50;19.17;;;;;;;2.53;62.19;99889.56;4954715;29;20421;-91
2022/10/25 04:02:16;;;;;;;50.45;18.42;;;;;;;2.69;62.63;99900.63;4938426;29;20040;-90
2022/10/25 04:04:42;;;;;;;57.03;18.75;;;;;;;2.68;61.78;99890.84;4926397;28;20540;-89
2022/10/25 04:07:09;;;;;;;56.58;18.80;;;;;;;2.53;62.08;99881.47;4941772;28;20584;-93
2022/10/25 04:09:36;;;;;;;43.38;17.38;;;;;;;2.49;61.90;99883.03;4952677;28;20043;-89
2022/10/25 04:12:04;;;;;;;59.42;17.95;;;;;;;2.35;62.46;99865.50;4957318;28;20046;-89
2022/10/25 04:14:30;;;;;;;49.22;17.45;;;;;;;2.70;62.40;99918.44;4955597;28;20043;-86
2022/10/25 04:16:56;;;;;;;44.10;16.95;;;;;;;2.83;62.41;99923.50;4955496;29;20031;-89
2022/10/25 04:19:23;;;;;;;56.60;19.60;;;;;;;2.86;62.21;99919.50;4955574;28;20039;-89
2022/10/25 04:21:49;;;;;;;64.18;25.95;;;;;;;2.80;62.20;99907.78;4926373;29;20043;-91
2022/10/25 04:24:15;;;;;;;84.68;39.90;;;;;;;2.69;62.99;99897.91;4957605;29;20054;-91
2022/10/25 04:26:41;;;;;;;92.00;39.30;;;;;;;2.78;62.52;99899.94;4921395;29;20042;-89
2022/10/25 04:29:09;;;;;;;127.28;51.88;;;;;;;2.52;63.07;99863.66;4955687;29;20067;-91
2022/10/25 04:31:36;;;;;;;100.88;49.13;;;;;;;2.56;62.54;99855.88;4954486;28;20050;-90
2022/10/25 04:34:02;;;;;;;98.45;43.50;;;;;;;2.85;62.40;99880.03;4957004;29;20584;-90
2022/10/25 04:36:29;;;;;;;75.97;37.43;;;;;;;2.87;61.88;99884.13;4942271;28;20078;-87
2022/10/25 04:38:56;;;;;;;84.22;33.80;;;;;;;2.77;61.53;99879.41;4960646;28;20035;-92
2022/10/25 04:41:22;;;;;;;71.93;31.05;;;;;;;2.74;61.95;99879.06;4940943;29;20039;-89
2022/10/25 04:43:50;;;;;;;68.20;23.25;;;;;;;2.98;62.35;99912.09;4957244;28;20107;-90
2022/10/25 04:46:17;;;;;;;59.80;23.70;;;;;;;2.80;61.70;99889.72;4939732;29;20390;-86
2022/10/25 04:48:43;;;;;;;53.17;21.05;;;;;;;2.99;61.55;99913.75;4955252;29;20051;-86
2022/10/25 04:51:10;;;;;;;58.08;20.67;;;;;;;2.77;61.62;99890.19;4971380;28;20047;-88
2022/10/25 04:53:37;;;;;;;47.38;18.98;;;;;;;3.02;61.82;99915.94;4954894;29;20039;-90
2022/10/25 04:56:06;;;;;;;53.42;19.17;;;;;;;3.02;62.28;99911.38;4954546;29;20390;-88
2022/10/25 04:58:33;;;;;;;58.05;19.27;;;;;;;3.00;62.69;99896.47;4954665;28;20130;-88
2022/10/25 05:01:00;;;;;;;;;;;;;;;3.17;62.07;99909.94;4954740;29;20047;-88
2022/10/25 05:03:26;;;;;;;;;;;;;;;3.19;61.96;99905.09;4954857;29;20392;-89
2022/10/25 05:05:52;;;;;;;70.47;22.20;;;;;;;3.10;61.85;99893.09;4954934;28;19926;-87
2022/10/25 05:08:19;;;;;;;57.78;19.90;;;;;;;2.93;62.01;99863.44;4954108;29;20089;-87
2022/10/25 05:10:53;;;;;;;63.03;21.23;;;;;;;3.17;62.36;99912.63;4970803;28;20035;-89
2022/10/25 05:13:19;;;;;;;54.15;20.73;;;;;;;3.15;62.22;99906.69;4955634;29;20125;-87
2022/10/25 05:15:56;;;;;;;60.45;19.27;;;;;;;3.33;62.14;99919.06;4937945;29;20035;-86
2022/10/25 05:18:22;;;;;;;58.65;17.33;;;;;;;3.20;62.54;99912.13;4954648;29;20070;-87
2022/10/25 05:20:54;;;;;;;58.25;17.50;;;;;;;3.40;62.69;99938.59;4955564;28;20448;-86
2022/10/25 05:23:21;;;;;;;44.88;15.13;;;;;;;3.36;63.14;99945.59;4970465;28;20141;-86
2022/10/25 05:25:47;;;;;;;52.00;16.40;;;;;;;3.02;63.31;99895.16;4954232;28;20556;-87
2022/10/25 05:28:14;;;;;;;49.13;16.30;;;;;;;3.40;63.70;99952.94;4922753;29;20074;-87
2022/10/25 05:30:42;;;;;;;43.63;16.63;;;;;;;3.43;63.75;99948.91;4938799;29;20689;-88
2022/10/25 05:33:08;;;;;;;55.75;18.67;;;;;;;3.50;63.84;99944.16;4954455;29;20050;-89
2022/10/25 05:35:35;;;;;;;59.83;19.60;;;;;;;3.63;63.32;99953.78;4954456;29;20039;-89
2022/10/25 05:38:01;;;;;;;71.43;21.30;;;;;;;3.67;63.85;99957.59;4972748;28;20047;-89
2022/10/25 05:40:27;;;;;;;66.18;20.75;;;;;;;3.51;63.75;99911.47;4963814;28;20020;-87
2022/10/25 05:42:53;;;;;;;69.97;24.00;;;;;;;3.55;63.66;99921.78;4978018;28;20026;-85
2022/10/25 05:45:19;;;;;;;59.85;20.65;;;;;;;3.70;63.94;99935.47;4973997;29;20039;-86
2022/10/25 05:47:45;;;;;;;65.43;21.42;;;;;;;3.56;64.10;99916.13;4970560;28;20427;-88
2022/10/25 05:50:12;;;;;;;67.78;21.55;;;;;;;3.78;64.27;99937.75;4954039;29;20039;-88
2022/10/25 05:52:42;;;;;;;54.85;20.33;;;;;;;3.80;64.08;99926.66;4954002;29;20049;-85
2022/10/25 05:55:09;;;;;;;70.88;22.95;;;;;;;3.84;64.70;99934.03;4953773;29;20549;-85
2022/10/25 05:57:35;;;;;;;71.20;20.20;;;;;;;4.00;64.92;99952.03;4968759;28;20514;-87
2022/10/25 06:00:03;;;;;;;54.60;17.23;;;;;;;3.99;64.33;99945.00;4953556;29;20074;-87
2022/10/25 06:02:31;;;;;;;64.78;18.02;;;;;;;3.95;64.43;99937.66;4953443;29;20036;-89
2022/10/25 06:04:58;;;;;;;52.65;17.55;;;;;;;3.78;64.30;99894.47;4954027;28;20047;-84
2022/10/25 06:07:24;;;;;;;50.97;15.15;;;;;;;4.07;63.85;99918.56;4956317;28;20082;-86
2022/10/25 06:09:50;;;;;;;41.88;15.27;;;;;;;4.20;63.76;99926.28;4968874;28;20045;-89
2022/10/25 06:12:16;;;;;;;49.30;15.40;;;;;;;4.16;63.34;99920.56;4921706;29;20101;-87
2022/10/25 06:14:42;;;;;;;65.35;16.35;;;;;;;4.22;63.36;99900.59;4955681;28;20105;-85
2022/10/25 06:17:08;;;;;;;59.90;15.13;;;;;;;4.66;62.93;99954.56;4954922;29;20043;-87
2022/10/25 06:19:34;;;;;;;48.40;14.57;;;;;;;4.67;62.72;99941.88;4937957;29;20065;-85
2022/10/25 06:22:03;;;;;;;51.42;13.25;;;;;;;4.72;61.89;99928.34;4954486;28;20590;-90
2022/10/25 06:24:29;;;;;;;43.17;13.93;;;;;;;4.75;61.77;99916.19;4956502;28;20043;-85
2022/10/25 06:26:55;;;;;;;40.85;11.75;;;;;;;4.98;61.52;99940.19;4943998;29;20047;-85
2022/10/25 06:29:24;;;;;;;47.70;12.25;;;;;;;5.00;61.57;99929.09;4933310;28;20046;-88
2022/10/25 06:31:51;;;;;;;27.40;9.75;;;;;;;5.04;61.12;99935.63;4924544;28;20338;-84
2022/10/25 06:34:17;;;;;;;37.50;9.57;;;;;;;5.10;60.94;99924.56;4968474;28;20039;-87
2022/10/25 06:36:43;;;;;;;24.40;7.75;;;;;;;5.28;60.35;99936.03;4960626;28;20042;-87
2022/10/25 06:39:09;;;;;;;27.00;7.68;;;;;;;5.13;60.38;99909.66;4962134;28;20039;-86
2022/10/25 06:41:36;;;;;;;16.90;7.10;;;;;;;5.40;59.98;99952.94;4954328;29;20085;-85
2022/10/25 06:44:02;;;;;;;25.17;6.97;;;;;;;5.05;59.12;99929.94;4936974;28;20074;-87
2022/10/25 06:46:32;;;;;;;16.92;7.10;;;;;;;5.38;60.16;99957.78;4952962;28;20051;-85
2022/10/25 06:49:04;;;;;;;19.35;6.55;;;;;;;5.40;59.77;99961.06;4924671;29;20047;-84
2022/10/25 06:51:32;;;;;;;21.40;7.20;;;;;;;5.40;59.61;99942.09;4962673;28;20043;-85
2022/10/25 06:54:00;;;;;;;16.20;7.05;;;;;;;5.46;59.13;99938.28;4972804;28;20130;-86
2022/10/25 06:56:28;;;;;;;30.40;7.78;;;;;;;5.68;59.17;99953.59;4961092;28;20043;-85
2022/10/25 06:58:55;;;;;;;22.52;7.57;;;;;;;5.58;58.76;99919.09;4937748;28;20043;-85
2022/10/25 07:01:22;;;;;;;29.15;10.23;;;;;;;5.71;58.88;99939.50;4921545;29;20054;-87
2022/10/25 07:03:55;;;;;;;26.50;10.00;;;;;;;5.78;58.78;99945.50;4936818;29;20035;-86
2022/10/25 07:06:34;;;;;;;20.15;6.65;;;;;;;5.71;58.22;99931.38;4955627;28;20521;-84
2022/10/25 07:09:01;;;;;;;22.20;6.55;;;;;;;5.71;59.11;99944.94;4954036;29;20067;-88
2022/10/25 07:11:29;;;;;;;20.00;6.38;;;;;;;5.86;58.62;99972.94;4952601;29;20046;-87
2022/10/25 07:13:57;;;;;;;17.70;5.90;;;;;;;5.90;58.13;99954.22;4953967;28;20051;-87
2022/10/25 07:16:25;;;;;;;13.85;6.93;;;;;;;6.06;57.04;99965.97;4954486;29;20043;-88
2022/10/25 07:18:51;;;;;;;19.38;7.43;;;;;;;6.17;57.67;99975.78;4953452;29;20091;-88
2022/10/25 07:21:20;;;;;;;13.97;5.77;;;;;;;5.97;57.74;99935.81;4954137;29;20043;-87
2022/10/25 07:23:49;;;;;;;20.48;6.43;;;;;;;6.31;57.07;99985.03;4952891;28;20109;-87
2022/10/25 07:26:18;;;;;;;17.45;6.65;;;;;;;6.00;57.17;99948.06;4968855;28;20043;-87
2022/10/25 07:28:47;;;;;;;24.27;6.43;;;;;;;6.10;55.94;99956.22;4952431;29;20073;-86
2022/10/25 07:31:16;;;;;;;18.95;7.22;;;;;;;6.32;56.11;99983.13;4953323;29;20178;-88
2022/10/25 07:33:43;;;;;;;25.77;7.40;;;;;;;6.08;56.11;99942.91;4952357;29;20070;-88
2022/10/25 07:36:09;;;;;;;27.90;7.90;;;;;;;6.17;56.52;99959.50;4953918;29;20126;-87
2022/10/25 07:38:36;;;;;;;21.95;8.35;;;;;;;6.31;56.61;99978.78;4952489;28;20043;-87
2022/10/25 07:41:03;;;;;;;30.67;7.88;;;;;;;6.09;55.95;99941.00;4953761;28;20039;-85
2022/10/25 07:43:29;;;;;;;25.70;8.37;;;;;;;6.25;56.79;99963.56;4950515;29;20035;-86
2022/10/25 07:45:55;;;;;;;18.17;8.38;;;;;;;6.37;56.26;99961.44;4935864;29;20422;-85
2022/10/25 07:48:22;;;;;;;28.03;9.37;;;;;;;6.50;55.29;99970.97;4954642;28;20046;-91
2022/10/25 07:50:48;;;;;;;24.88;9.05;;;;;;;6.65;55.14;99984.53;4956009;29;20086;-87
2022/10/25 07:53:14;;;;;;;30.55;9.25;;;;;;;6.60;54.70;99981.84;4957193;29;20043;-87
2022/10/25 07:55:40;;;;;;;60.85;11.05;;;;;;;6.58;55.82;99984.81;4955993;29;20533;-88
2022/10/25 07:58:09;;;;;;;31.75;7.40;;;;;;;6.50;53.86;99960.91;4956572;29;20043;-87
2022/10/25 08:00:36;;;;;;;24.77;7.15;;;;;;;6.52;54.12;99957.91;4955206;29;20047;-86
2022/10/25 08:03:03;;;;;;;44.67;8.67;;;;;;;6.52;54.02;99982.34;4955743;29;20046;-86
2022/10/25 08:05:29;;;;;;;128.35;14.18;;;;;;;6.34;53.53;99951.91;4954611;29;20070;-86
2022/10/25 08:07:55;;;;;;;92.57;9.57;;;;;;;6.26;53.09;99941.59;4941942;29;20047;-86
2022/10/25 08:10:22;;;;;;;26.87;6.30;;;;;;;6.40;51.97;99958.19;4951524;28;20416;-86
2022/10/25 08:12:49;;;;;;;22.50;5.10;;;;;;;6.30;52.85;99961.69;4959375;28;20496;-86
2022/10/25 08:15:16;;;;;;;23.10;5.97;;;;;;;6.57;52.14;99963.34;4976322;28;20039;-86
2022/10/25 08:17:42;;;;;;;29.52;6.13;;;;;;;6.85;52.33;99980.19;4973213;28;20501;-87
2022/10/25 08:20:09;;;;;;;21.85;6.85;;;;;;;6.66;53.36;99986.19;4956640;28;20050;-86
2022/10/25 08:25:05;;;;;;;43.40;7.50;;;;;;;6.66;52.51;99948.16;4957479;29;20047;-87
2022/10/25 08:27:31;;;;;;;23.60;7.20;;;;;;;6.52;53.46;99928.03;4961411;29;20039;-86
2022/10/25 08:29:59;;;;;;;35.95;7.07;;;;;;;6.95;53.32;99983.72;4941089;29;20046;-87
2022/10/25 08:32:27;;;;;;;37.88;7.20;;;;;;;6.95;52.39;99970.13;4946505;29;20035;-86
2022/10/25 08:34:53;;;;;;;22.90;6.80;;;;;;;6.86;52.50;99960.94;4956907;28;20035;-87
2022/10/25 08:37:19;;;;;;;20.75;6.75;;;;;;;6.88;52.63;99985.91;4956663;28;20050;-86
2022/10/25 08:39:47;;;;;;;11.00;4.93;;;;;;;6.92;51.16;99978.03;4935080;28;20050;-86
2022/10/25 08:42:27;;;;;;;18.83;5.05;;;;;;;6.86;51.20;99947.34;4975756;28;20042;-87
2022/10/25 08:45:08;;;;;;;17.60;5.95;;;;;;;7.09;50.91;99989.44;4976145;28;20402;-86
2022/10/25 08:47:42;;;;;;;14.20;6.00;;;;;;;7.05;51.56;99982.91;4956425;28;20093;-86
2022/10/25 08:50:34;;;;;;;17.60;5.30;;;;;;;7.12;50.22;99994.34;4959083;28;20050;-86
2022/10/25 08:53:04;;;;;;;23.95;6.57;;;;;;;7.10;49.76;99979.38;4934491;28;20047;-86
2022/10/25 08:55:42;;;;;;;13.68;5.20;;;;;;;7.13;49.81;99959.81;4956861;28;20051;-86
2022/10/25 08:58:19;;;;;;;19.15;5.28;;;;;;;7.46;49.89;99996.47;4959205;28;20038;-85
2022/10/25 09:00:48;;;;;;;21.88;5.78;;;;;;;7.28;49.74;100001.41;4976896;28;20089;-86
2022/10/25 09:03:24;;;;;;;16.65;4.13;;;;;;;6.94;47.81;99951.41;4980301;28;20051;-85
2022/10/25 09:05:59;;;;;;;11.00;3.47;;;;;;;7.24;47.86;99997.56;4964205;28;20050;-87
2022/10/25 09:08:31;;;;;;;46.97;5.10;;;;;;;7.37;47.43;99993.47;4944203;29;20039;-85
2022/10/25 09:11:16;;;;;;;33.58;6.15;;;;;;;7.49;47.68;99998.63;4936863;29;20043;-88
2022/10/25 09:13:58;;;;;;;24.98;5.13;;;;;;;7.57;48.57;99992.63;4935401;29;20131;-85
2022/10/25 09:16:30;;;;;;;22.13;6.25;;;;;;;7.54;49.29;99993.16;4935515;29;20047;-87
2022/10/25 09:18:56;;;;;;;13.65;4.90;;;;;;;7.64;48.92;99990.41;4935922;29;20048;-86
2022/10/25 09:21:45;;;;;;;12.98;3.67;;;;;;;7.64;47.00;99993.13;4955890;29;20122;-86
2022/10/25 09:24:27;;;;;;;10.73;2.50;;;;;;;7.26;45.86;99910.28;4955747;29;20054;-87
2022/10/25 09:27:06;;;;;;;12.98;3.40;;;;;;;7.75;46.16;99981.16;4922510;29;20133;-87
2022/10/25 09:29:58;;;;;;;9.68;3.65;;;;;;;7.77;45.43;99981.66;4938862;29;20050;-87
2022/10/25 09:32:38;;;;;;;10.18;3.22;;;;;;;7.59;45.82;99955.06;4947530;29;20043;-87
2022/10/25 09:35:12;;;;;;;13.20;3.75;;;;;;;7.57;43.29;99951.81;4954763;29;20070;-86
2022/10/25 09:37:48;;;;;;;14.10;2.65;;;;;;;7.67;43.92;99983.59;4938470;29;20532;-86
2022/10/25 09:40:22;;;;;;;13.32;3.72;;;;;;;7.42;45.11;99960.84;4955644;29;20592;-86
2022/10/25 09:42:55;;;;;;;22.42;4.68;;;;;;;7.35;45.72;99935.84;4922330;29;20394;-86
2022/10/25 09:45:30;;;;;;;13.35;3.20;;;;;;;7.81;44.34;99978.38;4954542;29;20051;-86
2022/10/25 09:48:12;;;;;;;8.98;2.78;;;;;;;7.81;43.90;99971.03;4954349;29;20550;-85
2022/10/25 09:51:05;;;;;;;12.70;3.03;;;;;;;7.91;44.82;99978.34;4938014;29;20035;-85
2022/10/25 09:53:36;;;;;;;17.48;3.95;;;;;;;7.82;44.39;99963.72;4955786;29;20042;-89
2022/10/25 09:56:04;;;;;;;7.25;2.80;;;;;;;7.72;43.12;99940.06;4905758;29;20051;-88
2022/10/25 09:58:39;;;;;;;8.73;2.88;;;;;;;7.93;43.50;99960.66;4954839;29;20513;-87
2022/10/25 10:01:14;;;;;;;13.65;2.83;;;;;;;7.88;43.28;99951.69;4932533;29;20505;-86
2022/10/25 10:03:40;;;;;;;9.30;2.90;;;;;;;7.52;44.04;99938.22;4938255;29;20089;-90
2022/10/25 10:06:24;;;;;;;10.23;3.37;;;;;;;7.85;44.39;99974.84;4925491;28;20051;-86
2022/10/25 10:08:55;;;;;;;9.35;3.72;;;;;;;7.86;43.61;99967.50;4955940;28;20043;-86
2022/10/25 10:11:23;;;;;;;40.05;5.40;;;;;;;7.85;43.99;99958.50;4971770;28;20042;-87
2022/10/25 10:14:15;;;;;;;23.58;6.32;;;;;;;7.95;44.83;99980.25;4974091;28;20046;-88
2022/10/25 10:16:46;;;;;;;15.18;5.10;;;;;;;7.87;45.61;99964.47;4974089;28;20078;-89
2022/10/25 10:19:15;;;;;;;11.50;4.22;;;;;;;7.75;44.33;99939.50;4973999;28;20117;-88
2022/10/25 10:21:44;;;;;;;16.20;4.13;;;;;;;8.00;43.48;99971.22;4946486;29;20470;-88
2022/10/25 10:24:21;;;;;;;7.47;2.60;;;;;;;7.70;43.02;99940.31;4937613;29;20051;-88
2022/10/25 10:26:56;;;;;;;10.27;3.30;;;;;;;7.74;42.97;99937.84;4940510;28;20031;-86
2022/10/25 10:29:24;;;;;;;9.52;3.42;;;;;;;7.70;43.94;99934.88;4962470;28;20031;-88
2022/10/25 10:31:54;;;;;;;9.48;4.60;;;;;;;7.92;43.69;99971.81;4949067;29;20047;-87
2022/10/25 10:34:22;;;;;;;19.15;6.25;;;;;;;7.91;44.98;99964.72;4954893;28;20130;-86
2022/10/25 10:37:20;;;;;;;22.10;5.90;;;;;;;7.81;44.98;99968.31;4958525;28;20039;-87
2022/10/25 10:39:49;;;;;;;13.48;4.95;;;;;;;7.71;45.44;99966.44;4961695;28;20460;-88
2022/10/25 10:42:17;;;;;;;11.48;4.75;;;;;;;7.56;45.13;99939.31;4956327;28;20042;-87
2022/10/25 10:45:15;;;;;;;23.13;6.78;;;;;;;7.54;45.60;99969.50;4972880;28;20559;-87
2022/10/25 10:47:54;;;;;;;13.00;5.53;;;;;;;7.59;45.88;99971.41;4946446;28;20513;-87
2022/10/25 10:50:20;;;;;;;15.73;5.63;;;;;;;7.62;45.87;99973.56;4934042;29;20510;-87
2022/10/25 10:53:20;;;;;;;16.90;6.27;;;;;;;7.69;45.04;99970.56;4918064;29;20036;-88
2022/10/25 10:55:52;;;;;;;16.48;7.43;;;;;;;7.63;46.12;99958.06;4929127;29;20287;-87
2022/10/25 10:58:24;;;;;;;28.48;8.82;;;;;;;7.74;46.21;99963.16;4935595;28;20046;-88
2022/10/25 11:01:12;;;;;;;32.08;9.40;;;;;;;7.57;46.09;99945.56;4918126;29;20194;-88
2022/10/25 11:03:44;;;;;;;33.65;14.52;;;;;;;7.76;46.73;99971.88;4955251;28;20077;-87
2022/10/25 11:06:26;;;;;;;27.58;9.43;;;;;;;7.80;45.95;99972.13;4955372;28;20069;-88
2022/10/25 11:09:18;;;;;;;22.80;9.27;;;;;;;7.83;46.16;99968.84;4956229;28;20129;-88
2022/10/25 11:12:04;;;;;;;26.88;7.15;;;;;;;7.66;48.30;99944.69;4956052;28;20089;-88
2022/10/25 11:14:30;;;;;;;21.45;6.95;;;;;;;7.90;49.26;99968.56;4972738;28;20069;-88
2022/10/25 11:17:12;;;;;;;22.08;6.95;;;;;;;7.82;48.47;99974.59;4971208;28;20042;-87
2022/10/25 11:19:54;;;;;;;14.85;6.38;;;;;;;7.76;47.60;99944.66;4952528;29;20058;-88
2022/10/25 11:22:48;;;;;;;20.02;7.07;;;;;;;7.99;48.09;99964.97;4968663;28;20093;-88
2022/10/25 11:25:40;;;;;;;38.10;9.95;;;;;;;8.09;47.86;99968.75;4939486;28;20050;-89
2022/10/25 11:28:27;;;;;;;19.60;6.40;;;;;;;8.02;47.50;99971.78;4976783;28;20409;-85
2022/10/25 11:31:33;;;;;;;30.17;7.15;;;;;;;7.99;47.42;99959.53;4976308;28;20047;-87
2022/10/25 11:34:31;;;;;;;23.45;6.80;;;;;;;8.06;47.16;99970.13;4959004;28;20539;-86
2022/10/25 11:37:18;;;;;;;24.70;7.57;;;;;;;7.95;47.67;99953.03;4965039;28;20047;-86
2022/10/25 11:40:06;;;;;;;22.23;7.20;;;;;;;8.15;46.93;99968.44;4959560;28;20105;-86
2022/10/25 11:43:08;;;;;;;30.05;7.47;;;;;;;8.22;46.70;99968.94;4975080;28;20054;-87
2022/10/25 11:45:48;;;;;;;26.77;7.60;;;;;;;8.11;46.51;99951.03;4976886;28;20145;-88
2022/10/25 11:48:35;;;;;;;30.30;8.43;;;;;;;8.36;46.64;99976.47;4927650;28;20050;-88
2022/10/25 11:51:31;;;;;;;30.77;7.63;;;;;;;8.30;46.48;99974.88;4959178;28;20055;-88
2022/10/25 11:54:16;;;;;;;36.95;8.30;;;;;;;8.42;46.77;99972.66;4958976;28;20045;-88
2022/10/25 11:56:58;;;;;;;26.77;8.80;;;;;;;8.24;46.03;99936.78;4959470;28;20540;-90
2022/10/25 11:59:44;;;;;;;25.55;7.43;;;;;;;8.43;46.51;99969.66;4958857;28;20125;-89